Time;durP1;ratioP1;P1;durP2;ratioP2;P2;SDS_P1;SDS_P2;PMS_P1;PMS_P2;Temp;Humidity;BMP_temperature;BMP_pressure;BME280_temperature;BME280_humidity;BME280_pressure;Samples;Min_cycle;Max_cycle;Signal;HPM_P1;HPM_P2
2022/04/13 04:14:23;;;;;;;;;;;;;;;12.63;63.11;96624.59;4255499;27;11285;-67
2022/04/13 04:16:25;;;;;;;;;;;;;;;12.68;62.61;96624.78;4249087;27;5665;-68
2022/04/13 04:18:27;;;;;;;;;;;;;;;12.71;62.64;96623.56;4228302;28;5706;-67
2022/04/13 04:20:29;;;;;;;;;;;;;;;12.75;62.56;96630.88;4248444;27;5737;-68
2022/04/13 04:22:31;;;;;;;;;;;;;;;12.78;61.96;96637.59;4241775;27;5644;-67
2022/04/13 04:24:33;;;;;;;;;;;;;;;12.82;61.93;96639.63;4242536;27;5864;-68
2022/04/13 04:26:34;;;;;;;;;;;;;;;12.87;61.32;96643.47;4243732;27;5722;-68
2022/04/13 04:28:36;;;;;;;;;;;;;;;12.87;61.36;96638.19;4241065;27;6367;-68
2022/04/13 04:30:42;;;;;;;;;;;;;;;12.84;61.47;96642.06;4251030;27;5836;-68
2022/04/13 04:32:43;;;;;;;;;;;;;;;12.86;61.56;96641.84;4237854;27;5757;-69
2022/04/13 04:34:45;;;;;;;;;;;;;;;12.87;61.59;96651.44;4240125;27;5699;-68
2022/04/13 04:36:47;;;;;;;;;;;;;;;12.87;61.55;96643.47;4241704;27;5684;-68
2022/04/13 04:38:48;;;;;;;;;;;;;;;12.82;61.29;96650.25;4243636;27;5658;-68
2022/04/13 04:40:50;;;;;;;;;;;;;;;12.81;61.70;96650.47;4246649;27;5716;-68
2022/04/13 04:42:52;;;;;;;;;;;;;;;12.85;61.21;96650.84;4246665;27;5662;-69
2022/04/13 04:44:58;;;;;;;;;;;;;;;12.89;60.98;96660.00;4245106;27;5624;-68
2022/04/13 04:47:00;;;;;;;;;;;;;;;12.86;61.06;96655.94;4250246;27;5711;-67
2022/04/13 04:49:03;;;;;;;;;;;;;;;12.87;60.93;96646.94;4236938;27;5687;-67
2022/04/13 04:51:04;;;;;;;;;;;;;;;12.83;60.95;96657.19;4239527;27;5837;-68
2022/04/13 04:53:06;;;;;;;;;;;;;;;12.84;60.79;96660.66;4236914;27;5669;-66
2022/04/13 04:55:09;;;;;;;;;;;;;;;12.85;61.01;96666.75;4241605;27;5874;-67
2022/04/13 04:57:10;;;;;;;;;;;;;;;12.67;61.59;96665.59;4240585;27;5743;-68
2022/04/13 04:59:12;;;;;;;;;;;;;;;12.78;61.61;96666.78;4236571;27;5852;-68
2022/04/13 05:01:14;;;;;;;;;;;;;;;12.84;62.02;96671.25;4236065;27;5662;-66
2022/04/13 05:03:15;;;;;;;;;;;;;;;12.72;61.87;96671.09;4247849;27;5642;-67
2022/04/13 05:05:18;;;;;;;;;;;;;;;12.80;61.67;96676.19;4247532;27;5904;-68
2022/04/13 05:07:20;;;;;;;;;;;;;;;12.82;61.76;96678.63;4248027;27;5714;-67
2022/04/13 05:09:22;;;;;;;;;;;;;;;12.85;61.48;96677.38;4245615;27;5601;-67
2022/04/13 05:11:24;;;;;;;;;;;;;;;12.95;61.37;96685.72;4247328;27;5650;-67
2022/04/13 05:13:26;;;;;;;;;;;;;;;12.92;61.72;96686.94;4246873;27;5658;-67
2022/04/13 05:15:28;;;;;;;;;;;;;;;12.95;61.65;96683.88;4233118;28;5792;-68
2022/04/13 05:17:30;;;;;;;;;;;;;;;12.98;61.85;96693.25;4231135;28;7686;-68
2022/04/13 05:19:33;;;;;;;;;;;;;;;13.01;61.95;96698.94;4224281;28;5746;-68
2022/04/13 05:21:35;;;;;;;;;;;;;;;13.03;62.14;96701.41;4217666;28;5612;-68
2022/04/13 05:23:37;;;;;;;;;;;;;;;13.00;62.55;96699.16;4226425;28;5643;-67
2022/04/13 05:25:38;;;;;;;;;;;;;;;13.02;63.02;96705.91;4236330;28;5658;-68
2022/04/13 05:27:40;;;;;;;;;;;;;;;13.03;63.09;96706.72;4234708;28;5664;-67
2022/04/13 05:29:41;;;;;;;;;;;;;;;13.02;64.41;96705.06;4236384;27;5646;-67
2022/04/13 05:31:43;;;;;;;;;;;;;;;12.98;63.59;96699.34;4228086;28;5615;-69
2022/04/13 05:33:45;;;;;;;;;;;;;;;13.03;63.41;96706.72;4220626;28;5675;-68
2022/04/13 05:35:47;;;;;;;;;;;;;;;13.06;63.61;96709.75;4229770;28;5822;-69
2022/04/13 05:37:49;;;;;;;;;;;;;;;13.06;63.64;96711.59;4235245;27;5632;-69
2022/04/13 05:39:50;;;;;;;;;;;;;;;13.04;63.28;96713.63;4239568;27;5666;-68
2022/04/13 05:41:52;;;;;;;;;;;;;;;13.08;63.34;96709.53;4234657;28;5675;-68
2022/04/13 05:43:54;;;;;;;;;;;;;;;13.11;63.48;96719.72;4234629;28;5601;-69
2022/04/13 05:45:55;;;;;;;;;;;;;;;13.09;63.72;96722.59;4236036;28;5828;-68
2022/04/13 05:47:57;;;;;;;;;;;;;;;13.15;63.09;96725.44;4235292;27;5840;-68
2022/04/13 05:49:59;;;;;;;;;;;;;;;13.19;63.17;96724.00;4252094;27;5754;-68
2022/04/13 05:52:01;;;;;;;;;;;;;;;13.17;62.97;96723.38;4226320;27;5679;-67
2022/04/13 05:54:02;;;;;;;;;;;;;;;13.18;62.72;96725.81;4219569;28;5667;-68
2022/04/13 05:56:05;;;;;;;;;;;;;;;13.19;62.93;96734.63;4229174;28;5836;-68
2022/04/13 05:58:06;;;;;;;;;;;;;;;13.19;62.81;96740.75;4232015;28;5654;-68
2022/04/13 06:00:11;;;;;;;;;;;;;;;13.20;62.63;96742.38;4234934;28;5669;-68
2022/04/13 06:02:12;;;;;;;;;;;;;;;13.24;62.76;96751.53;4234762;28;5446;-69
2022/04/13 06:04:14;;;;;;;;;;;;;;;13.23;63.14;96752.56;4233537;28;7760;-67
2022/04/13 06:06:16;;;;;;;;;;;;;;;13.27;63.06;96758.28;4234474;28;5721;-69
2022/04/13 06:08:18;;;;;;;;;;;;;;;13.17;62.29;96769.31;4234571;28;5737;-69
2022/04/13 06:10:20;;;;;;;;;;;;;;;13.16;63.31;96773.00;4235572;28;5709;-67
2022/04/13 06:12:23;;;;;;;;;;;;;;;13.26;63.15;96776.06;4233798;28;5860;-67
2022/04/13 06:14:25;;;;;;;;;;;;;;;13.29;63.01;96785.44;4231911;28;5601;-67
2022/04/13 06:16:26;;;;;;;;;;;;;;;13.32;62.75;96785.00;4233159;28;5681;-67
2022/04/13 06:18:28;;;;;;;;;;;;;;;13.32;63.02;96782.34;4230673;28;5841;-68
2022/04/13 06:20:30;;;;;;;;;;;;;;;13.22;63.51;96780.13;4232888;28;5850;-68
2022/04/13 06:22:36;;;;;;;;;;;;;;;13.34;63.17;96782.97;4234882;28;5728;-67
2022/04/13 06:24:38;;;;;;;;;;;;;;;13.44;62.88;96782.50;4234904;28;5744;-68
2022/04/13 06:26:39;;;;;;;;;;;;;;;13.55;62.53;96785.31;4232357;28;5613;-68
2022/04/13 06:28:41;;;;;;;;;;;;;;;13.58;62.28;96789.38;4233119;28;5698;-68
2022/04/13 06:30:43;;;;;;;;;;;;;;;13.55;62.26;96787.16;4234441;28;5681;-68
2022/04/13 06:32:46;;;;;;;;;;;;;;;13.55;62.31;96787.16;4216398;28;5814;-67
2022/04/13 06:34:47;;;;;;;;;;;;;;;13.57;62.21;96787.75;4225221;28;5738;-67
2022/04/13 06:36:49;;;;;;;;;;;;;;;13.62;62.24;96788.75;4218186;28;5953;-67
2022/04/13 06:38:51;;;;;;;;;;;;;;;13.65;62.97;96795.50;4218246;28;5675;-68
2022/04/13 06:40:52;;;;;;;;;;;;;;;13.54;63.80;96798.81;4233352;28;5662;-68
2022/04/13 06:42:55;;;;;;;;;;;;;;;13.64;63.14;96792.03;4215573;28;5679;-67
2022/04/13 06:44:58;;;;;;;;;;;;;;;13.59;63.10;96793.66;4223074;28;5800;-68
2022/04/13 06:47:01;;;;;;;;;;;;;;;13.71;62.72;96789.34;4216396;28;5604;-66
2022/04/13 06:49:03;;;;;;;;;;;;;;;13.78;62.31;96797.25;4224759;28;6338;-68
2022/04/13 06:51:05;;;;;;;;;;;;;;;13.76;62.59;96797.47;4229138;27;5670;-68
2022/04/13 06:53:07;;;;;;;;;;;;;;;13.73;62.36;96800.56;4220027;28;5715;-68
2022/04/13 06:55:11;;;;;;;;;;;;;;;13.76;62.05;96797.47;4223577;28;5644;-67
2022/04/13 06:57:13;;;;;;;;;;;;;;;13.78;61.73;96799.91;4227863;28;5617;-68
2022/04/13 06:59:15;;;;;;;;;;;;;;;13.77;61.76;96795.63;4234695;27;5654;-66
2022/04/13 07:01:16;;;;;;;;;;;;;;;13.84;61.77;96799.06;4210972;28;5725;-67
2022/04/13 07:03:21;;;;;;;;;;;;;;;13.94;60.61;96796.78;4232379;28;5717;-67
2022/04/13 07:05:26;;;;;;;;;;;;;;;13.90;60.54;96798.22;4221962;28;5613;-67
2022/04/13 07:07:28;;;;;;;;;;;;;;;13.75;60.60;96795.84;4234491;27;5063;-67
2022/04/13 07:09:30;;;;;;;;;;;;;;;13.90;60.19;96799.03;4232966;28;5628;-66
2022/04/13 07:11:31;;;;;;;;;;;;;;;14.01;58.66;96799.38;4216391;28;5612;-67
2022/04/13 07:13:33;;;;;;;;;;;;;;;13.93;59.14;96803.94;4229687;28;5809;-68
2022/04/13 07:15:35;;;;;;;;;;;;;;;13.95;60.18;96801.88;4227299;28;5667;-68
2022/04/13 07:17:37;;;;;;;;;;;;;;;14.03;59.80;96807.94;4218796;28;5675;-68
2022/04/13 07:19:38;;;;;;;;;;;;;;;13.96;61.31;96808.81;4234243;28;5681;-68
2022/04/13 07:21:40;;;;;;;;;;;;;;;13.97;62.34;96810.44;4233900;27;5804;-69
2022/04/13 07:23:58;;;;;;;;;;;;;;;13.94;62.82;96804.75;4234754;28;5754;-67
2022/04/13 07:26:00;;;;;;;;;;;;;;;13.99;63.20;96811.03;4221535;28;5755;-67
2022/04/13 07:28:02;;;;;;;;;;;;;;;13.73;63.99;96808.53;4232896;28;5654;-68
2022/04/13 07:30:05;;;;;;;;;;;;;;;13.77;63.45;96808.91;4229480;28;5682;-67
2022/04/13 07:32:07;;;;;;;;;;;;;;;13.73;62.97;96811.19;4233188;27;5674;-68
2022/04/13 07:34:09;;;;;;;;;;;;;;;13.87;63.09;96810.09;4233910;28;5831;-68
2022/04/13 07:36:12;;;;;;;;;;;;;;;13.86;62.18;96813.78;4233779;28;5803;-68
2022/04/13 07:38:13;;;;;;;;;;;;;;;13.85;62.26;96812.16;4233727;28;5666;-67
2022/04/13 07:40:17;;;;;;;;;;;;;;;13.88;62.10;96814.38;4234275;27;5654;-68
2022/04/13 07:42:22;;;;;;;;;;;;;;;13.78;62.56;96810.53;4233050;28;5653;-67
2022/04/13 07:44:24;;;;;;;;;;;;;;;13.75;63.28;96822.41;4231914;28;5703;-68
2022/04/13 07:46:46;;;;;;;;;;;;;;;13.93;62.22;96817.22;4231000;28;5649;-67
2022/04/13 07:48:47;;;;;;;;;;;;;;;14.03;62.88;96823.88;4233440;28;5881;-67
2022/04/13 07:50:49;;;;;;;;;;;;;;;14.10;61.55;96816.69;4220536;28;5730;-67
2022/04/13 07:52:50;;;;;;;;;;;;;;;14.12;62.01;96819.94;4233714;28;5734;-68
2022/04/13 07:54:53;;;;;;;;;;;;;;;14.07;63.13;96820.59;4221298;28;5658;-68
2022/04/13 07:56:55;;;;;;;;;;;;;;;14.10;63.71;96825.47;4233121;28;5646;-67
2022/04/13 07:58:56;;;;;;;;;;;;;;;14.14;64.16;96823.19;4233480;28;5654;-67
2022/04/13 08:00:58;;;;;;;;;;;;;;;14.16;64.58;96829.16;4222059;28;5703;-67
2022/04/13 08:03:00;;;;;;;;;;;;;;;14.21;64.34;96816.00;4228767;28;5981;-67
2022/04/13 08:05:03;;;;;;;;;;;;;;;14.18;64.33;96827.06;4232537;28;5630;-68
2022/04/13 08:07:05;;;;;;;;;;;;;;;14.13;65.06;96832.22;4230198;28;5650;-67
2022/04/13 08:09:06;;;;;;;;;;;;;;;14.19;64.29;96828.72;4232319;28;5608;-67
2022/04/13 08:11:08;;;;;;;;;;;;;;;14.10;63.61;96837.97;4233393;27;5772;-68
2022/04/13 08:13:10;;;;;;;;;;;;;;;14.11;63.21;96832.44;4223055;27;5642;-69
2022/04/13 08:15:15;;;;;;;;;;;;;;;14.07;63.90;96836.56;4228737;28;5781;-70
2022/04/13 08:17:17;;;;;;;;;;;;;;;14.13;64.18;96842.84;4222483;28;5700;-71
2022/04/13 08:19:19;;;;;;;;;;;;;;;14.11;64.30;96836.94;4215689;27;5683;-72
2022/04/13 08:21:21;;;;;;;;;;;;;;;13.92;64.11;96834.16;4225992;28;5216;-70
2022/04/13 08:23:23;;;;;;;;;;;;;;;13.91;64.62;96835.19;4232500;28;8450;-70
2022/04/13 08:25:24;;;;;;;;;;;;;;;13.87;64.82;96841.16;4232647;28;5729;-71
2022/04/13 08:27:26;;;;;;;;;;;;;;;13.79;63.55;96836.09;4225158;28;5754;-71
2022/04/13 08:29:28;;;;;;;;;;;;;;;13.79;63.30;96836.91;4217054;28;5700;-71
2022/04/13 08:31:30;;;;;;;;;;;;;;;13.89;63.54;96844.41;4227417;28;5683;-71
2022/04/13 08:33:33;;;;;;;;;;;;;;;14.03;63.32;96843.31;4224496;28;5771;-70
2022/04/13 08:35:35;;;;;;;;;;;;;;;14.19;62.54;96834.03;4224143;28;5661;-70
2022/04/13 08:37:37;;;;;;;;;;;;;;;14.24;61.69;96836.84;4226714;27;5738;-71
2022/04/13 08:39:42;;;;;;;;;;;;;;;14.05;61.27;96843.94;4219402;28;5945;-70
2022/04/13 08:41:55;;;;;;;;;;;;;;;14.02;61.76;96846.19;4212687;28;5692;-69
2022/04/13 08:44:07;;;;;;;;;;;;;;;14.22;61.92;96838.91;4221705;28;5596;-67
2022/04/13 08:46:15;;;;;;;;;;;;;;;14.32;61.07;96843.75;4218604;28;5635;-64
2022/04/13 08:48:22;;;;;;;;;;;;;;;14.44;60.52;96834.03;4217254;28;5701;-64
2022/04/13 08:50:29;;;;;;;;;;;;;;;14.38;59.74;96832.22;4223924;28;5620;-68
2022/04/13 08:52:32;;;;;;;;;;;;;;;14.37;59.46;96841.25;4233064;28;5809;-66
2022/04/13 08:54:51;;;;;;;;;;;;;;;14.48;59.45;96838.75;4221780;28;5927;-64
2022/04/13 08:56:54;;;;;;;;;;;;;;;14.40;57.34;96838.19;4230870;28;5642;-63
2022/04/13 08:59:39;;;;;;;;;;;;;;;14.33;57.36;96838.22;4233776;28;5665;-64
2022/04/13 09:01:59;;;;;;;;;;;;;;;14.35;56.90;96844.13;4234997;28;5108;-64
2022/04/13 09:04:07;;;;;;;;;;;;;;;14.26;54.56;96840.91;4222652;28;5675;-64
2022/04/13 09:06:11;;;;;;;;;;;;;;;14.34;55.52;96839.03;4233631;28;5646;-64
2022/04/13 09:08:20;;;;;;;;;;;;;;;14.40;54.65;96830.19;4226015;28;5731;-65
2022/04/13 09:10:23;;;;;;;;;;;;;;;14.42;55.09;96839.59;4219023;28;5757;-64
2022/04/13 09:12:30;;;;;;;;;;;;;;;14.43;54.62;96841.22;4219335;28;5679;-63
2022/04/13 09:14:34;;;;;;;;;;;;;;;14.43;54.22;96846.53;4226135;28;5685;-64
2022/04/13 09:16:35;;;;;;;;;;;;;;;14.40;54.71;96840.84;4234620;27;5653;-63
2022/04/13 09:18:38;;;;;;;;;;;;;;;14.46;55.20;96845.31;4227558;28;5758;-63
2022/04/13 09:20:40;;;;;;;;;;;;;;;14.46;54.34;96851.44;4218755;28;5731;-64
2022/04/13 09:22:42;;;;;;;;;;;;;;;14.38;54.41;96843.69;4233730;28;5635;-64
2022/04/13 09:24:45;;;;;;;;;;;;;;;14.31;54.63;96848.25;4233430;28;5593;-64
2022/04/13 09:26:48;;;;;;;;;;;;;;;14.38;54.48;96848.19;4233174;27;5717;-64
2022/04/13 09:28:49;;;;;;;;;;;;;;;14.40;54.74;96846.97;4225608;28;5687;-65
2022/04/13 09:30:54;;;;;;;;;;;;;;;14.50;54.90;96835.88;4218596;28;5815;-66
2022/04/13 09:32:56;;;;;;;;;;;;;;;14.58;54.43;96843.56;4218558;28;5777;-66
2022/04/13 09:34:59;;;;;;;;;;;;;;;14.59;54.11;96845.19;4218405;28;5783;-66
2022/04/13 09:37:01;;;;;;;;;;;;;;;14.45;55.27;96841.84;4228835;28;5678;-66
2022/04/13 09:39:02;;;;;;;;;;;;;;;14.60;54.56;96840.69;4230290;28;5687;-65
2022/04/13 09:41:09;;;;;;;;;;;;;;;14.61;54.20;96843.16;4217686;28;5751;-65
2022/04/13 09:43:13;;;;;;;;;;;;;;;14.61;54.44;96837.00;4227714;28;5898;-66
2022/04/13 09:45:15;;;;;;;;;;;;;;;-143.27;100.00;61465.69;4229000;28;5757;-64
2022/04/13 09:47:17;;;;;;;;;;;;;;;-143.27;100.00;61465.69;4225352;27;7016;-67
2022/04/13 09:49:21;;;;;;;;;;;;;;;-143.27;100.00;61465.69;4233997;28;5740;-66
2022/04/13 09:51:34;;;;;;;;;;;;;;;-143.27;100.00;61465.69;4227961;28;5784;-64
2022/04/13 09:53:41;;;;;;;;;;;;;;;-143.27;100.00;61465.69;4234276;28;5816;-64
2022/04/13 09:55:44;;;;;;;;;;;;;;;-143.27;100.00;61465.69;4229067;28;5829;-64
2022/04/13 09:57:46;;;;;;;;;;;;;;;-143.27;100.00;61465.69;4231301;28;5662;-66
2022/04/13 09:59:55;;;;;;;;;;;;;;;-143.27;100.00;61465.69;4234633;28;5745;-64
2022/04/13 10:01:58;;;;;;;;;;;;;;;-143.27;100.00;61465.69;4223714;28;5743;-65
2022/04/13 10:04:01;;;;;;;;;;;;;;;-143.27;100.00;61465.69;4221821;28;5920;-68
2022/04/13 10:06:02;;;;;;;;;;;;;;;-143.27;100.00;61465.69;4233494;28;5708;-63
2022/04/13 10:08:09;;;;;;;;;;;;;;;-143.27;100.00;61465.69;4223064;28;5646;-63
2022/04/13 10:10:24;;;;;;;;;;;;;;;-143.27;100.00;61465.69;4234523;28;5712;-63
2022/04/13 10:12:28;;;;;;;;;;;;;;;-143.27;100.00;61465.69;4224746;28;6401;-63
2022/04/13 10:14:30;;;;;;;;;;;;;;;-143.27;100.00;61465.69;4228984;28;5646;-67
2022/04/13 10:16:34;;;;;;;;;;;;;;;-143.27;100.00;61465.69;4215431;28;5708;-64
2022/04/13 10:18:56;;;;;;;;;;;;;;;-143.27;100.00;61465.69;4233861;28;5654;-64
2022/04/13 10:20:58;;;;;;;;;;;;;;;-143.27;100.00;61465.69;4229683;28;5754;-64
2022/04/13 10:23:02;;;;;;;;;;;;;;;-143.27;100.00;61465.69;4224848;28;5788;-64
2022/04/13 10:25:27;;;;;;;;;;;;;;;-143.27;100.00;61465.69;4233208;28;5797;-64
2022/04/13 10:27:30;;;;;;;;;;;;;;;-143.27;100.00;61465.69;4222545;28;5767;-65
2022/04/13 10:29:40;;;;;;;;;;;;;;;-143.27;100.00;61465.69;4231971;28;6483;-65
2022/04/13 10:32:01;;;;;;;;;;;;;;;-143.27;100.00;61465.69;4230338;28;5609;-65
2022/04/13 10:34:03;;;;;;;;;;;;;;;-143.27;100.00;61465.69;4222765;27;5780;-65
2022/04/13 10:36:05;;;;;;;;;;;;;;;-143.27;100.00;61465.69;4218178;28;6344;-65
2022/04/13 10:38:08;;;;;;;;;;;;;;;-143.27;100.00;61465.69;4226337;28;5711;-64
2022/04/13 10:40:10;;;;;;;;;;;;;;;-143.27;100.00;61465.69;4232984;28;5866;-65
2022/04/13 10:42:15;;;;;;;;;;;;;;;-143.27;100.00;61465.69;4226475;28;7829;-65
2022/04/13 10:44:33;;;;;;;;;;;;;;;-143.27;100.00;61465.69;4224485;28;5412;-64
2022/04/13 10:46:35;;;;;;;;;;;;;;;-143.27;100.00;61465.69;4226271;28;5663;-64
2022/04/13 10:48:40;;;;;;;;;;;;;;;-143.27;100.00;61465.69;4223904;28;5682;-64
2022/04/13 10:51:01;;;;;;;;;;;;;;;-143.27;100.00;61465.69;4230877;28;5761;-66
2022/04/13 10:53:19;;;;;;;;;;;;;;;-143.27;100.00;61465.69;4218714;28;5630;-64
2022/04/13 10:55:23;;;;;;;;;;;;;;;-143.27;100.00;61465.69;4216396;28;5824;-64
2022/04/13 10:57:34;;;;;;;;;;;;;;;-143.27;100.00;61465.69;4217385;28;5735;-64
2022/04/13 10:59:51;;;;;;;;;;;;;;;-143.27;100.00;61465.69;4231074;28;5857;-66
2022/04/13 11:02:10;;;;;;;;;;;;;;;-143.27;100.00;61465.69;4231921;28;5841;-66
2022/04/13 11:04:12;;;;;;;;;;;;;;;-143.27;100.00;61465.69;4224477;28;5758;-66
2022/04/13 11:06:15;;;;;;;;;;;;;;;-143.27;100.00;61465.69;4232423;28;5759;-66
2022/04/13 11:08:28;;;;;;;;;;;;;;;-143.27;100.00;61465.69;4228473;28;5658;-66
2022/04/13 11:10:32;;;;;;;;;;;;;;;-143.27;100.00;61465.69;4231771;28;5672;-65
2022/04/13 11:12:35;;;;;;;;;;;;;;;-143.27;100.00;61465.69;4225501;28;5642;-71
2022/04/13 11:14:50;;;;;;;;;;;;;;;-143.27;100.00;61465.69;4232217;28;5774;-67
2022/04/13 11:17:11;;;;;;;;;;;;;;;-143.27;100.00;61465.69;4233199;28;5707;-71
2022/04/13 11:19:16;;;;;;;;;;;;;;;-143.27;100.00;61465.69;4227541;27;5671;-83
2022/04/13 11:21:18;;;;;;;;;;;;;;;-143.27;100.00;61465.69;4228132;28;5745;-69
2022/04/13 11:23:19;;;;;;;;;;;;;;;-143.27;100.00;61465.69;4228579;28;5600;-68
2022/04/13 11:25:44;;;;;;;;;;;;;;;-143.27;100.00;61465.69;4225997;28;5646;-67
2022/04/13 11:27:50;;;;;;;;;;;;;;;-143.27;100.00;61465.69;4228427;28;5829;-66
2022/04/13 11:30:00;;;;;;;;;;;;;;;-143.27;100.00;61465.69;4230251;28;5629;-67
2022/04/13 11:32:04;;;;;;;;;;;;;;;-143.27;100.00;61465.69;4223314;27;5784;-67
2022/04/13 11:34:06;;;;;;;;;;;;;;;-143.27;100.00;61465.69;4227151;28;5829;-67
2022/04/13 11:36:08;;;;;;;;;;;;;;;-143.27;100.00;61465.69;4228040;28;5755;-68
2022/04/13 11:38:31;;;;;;;;;;;;;;;-143.27;100.00;61465.69;4224815;27;5902;-68
2022/04/13 11:40:33;;;;;;;;;;;;;;;-143.27;100.00;61465.69;4223102;28;5887;-68
2022/04/13 11:42:35;;;;;;;;;;;;;;;-143.27;100.00;61465.69;4220524;27;5716;-69
2022/04/13 11:44:50;;;;;;;;;;;;;;;-143.27;100.00;61465.69;4228963;28;5617;-65
2022/04/13 11:47:12;;;;;;;;;;;;;;;-143.27;100.00;61465.69;4221730;28;7775;-63
2022/04/13 11:49:14;;;;;;;;;;;;;;;-143.27;100.00;61465.69;4228038;27;5733;-64
2022/04/13 11:51:29;;;;;;;;;;;;;;;-143.27;100.00;61465.69;4229806;28;5926;-64
2022/04/13 11:53:53;;;;;;;;;;;;;;;-143.27;100.00;61465.69;4230160;28;6487;-64
2022/04/13 11:55:59;;;;;;;;;;;;;;;-143.27;100.00;61465.69;4216873;28;5671;-64
2022/04/13 11:58:10;;;;;;;;;;;;;;;-143.27;100.00;61465.69;4234712;27;5824;-67
2022/04/13 12:00:44;;;;;;;;;;;;;;;-143.27;100.00;61465.69;4222238;28;5666;-66
2022/04/13 12:02:47;;;;;;;;;;;;;;;-143.27;100.00;61465.69;4242128;27;5640;-66
2022/04/13 12:04:49;;;;;;;;;;;;;;;-143.27;100.00;61465.69;4229297;27;5653;-67
2022/04/13 12:06:51;;;;;;;;;;;;;;;-143.27;100.00;61465.69;4227274;28;5857;-66
2022/04/13 12:08:58;;;;;;;;;;;;;;;-143.27;100.00;61465.69;4223393;28;5721;-66
2022/04/13 12:11:10;;;;;;;;;;;;;;;-143.27;100.00;61465.69;4226262;28;5728;-67
2022/04/13 12:13:12;;;;;;;;;;;;;;;-143.27;100.00;61465.69;4229747;28;5650;-66
2022/04/13 12:15:24;;;;;;;;;;;;;;;-143.27;100.00;61465.69;4232150;27;5728;-66
2022/04/13 12:17:26;;;;;;;;;;;;;;;-143.27;100.00;61465.69;4217584;28;5853;-68
2022/04/13 12:19:38;;;;;;;;;;;;;;;-143.27;100.00;61465.69;4218333;28;7742;-65
2022/04/13 12:21:40;;;;;;;;;;;;;;;-143.27;100.00;61465.69;4227353;27;5779;-65
2022/04/13 12:23:43;;;;;;;;;;;;;;;-143.27;100.00;61465.69;4233072;28;5677;-65
2022/04/13 12:25:48;;;;;;;;;;;;;;;-143.27;100.00;61465.69;4234302;28;5601;-65
2022/04/13 12:28:05;;;;;;;;;;;;;;;-143.27;100.00;61465.69;4228647;28;5645;-65
2022/04/13 12:30:13;;;;;;;;;;;;;;;-143.27;100.00;61465.69;4223950;28;5836;-65
2022/04/13 12:32:18;;;;;;;;;;;;;;;-143.27;100.00;61465.69;4224260;28;5653;-64
2022/04/13 12:34:21;;;;;;;;;;;;;;;-143.27;100.00;61465.69;4224169;28;5620;-65
2022/04/13 12:36:23;;;;;;;;;;;;;;;-143.27;100.00;61465.69;4236880;27;5693;-64
2022/04/13 12:38:32;;;;;;;;;;;;;;;-143.27;100.00;61465.69;4226658;27;5654;-64
2022/04/13 12:40:33;;;;;;;;;;;;;;;-143.27;100.00;61465.69;4236461;27;5701;-64
2022/04/13 12:42:35;;;;;;;;;;;;;;;-143.27;100.00;61465.69;4234154;28;5681;-66
2022/04/13 12:44:45;;;;;;;;;;;;;;;-143.27;100.00;61465.69;4236516;28;5833;-71
2022/04/13 12:46:47;;;;;;;;;;;;;;;-143.27;100.00;61465.69;4232147;28;5662;-71
2022/04/13 12:48:50;;;;;;;;;;;;;;;-143.27;100.00;61465.69;4234000;27;5706;-73
2022/04/13 12:51:03;;;;;;;;;;;;;;;-143.27;100.00;61465.69;4232937;27;5649;-73
2022/04/13 12:53:05;;;;;;;;;;;;;;;-143.27;100.00;61465.69;4230916;28;5650;-71
2022/04/13 12:55:07;;;;;;;;;;;;;;;-143.27;100.00;61465.69;4236169;28;5730;-72
2022/04/13 12:57:11;;;;;;;;;;;;;;;-143.27;100.00;61465.69;4231924;28;5642;-72
2022/04/13 12:59:24;;;;;;;;;;;;;;;-143.27;100.00;61465.69;4234395;28;5808;-76
2022/04/13 13:01:36;;;;;;;;;;;;;;;-143.27;100.00;61465.69;4228963;28;5641;-82
2022/04/13 13:03:42;;;;;;;;;;;;;;;-143.27;100.00;61465.69;4224966;27;5662;-83
2022/04/13 13:05:44;;;;;;;;;;;;;;;-143.27;100.00;61465.69;4219762;28;5802;-82
2022/04/13 13:07:47;;;;;;;;;;;;;;;-143.27;100.00;61465.69;4235184;28;5798;-68
2022/04/13 13:09:52;;;;;;;;;;;;;;;-143.27;100.00;61465.69;4231994;28;5642;-71
2022/04/13 13:12:15;;;;;;;;;;;;;;;-143.27;100.00;61465.69;4231036;28;5766;-73
2022/04/13 13:14:17;;;;;;;;;;;;;;;-143.27;100.00;61465.69;4230831;27;5720;-62
2022/04/13 13:16:32;;;;;;;;;;;;;;;-143.27;100.00;61465.69;4228852;28;5659;-61
2022/04/13 13:18:34;;;;;;;;;;;;;;;-143.27;100.00;61465.69;4218922;28;5667;-64
2022/04/13 13:20:57;;;;;;;;;;;;;;;-143.27;100.00;61465.69;4220007;28;5742;-64
2022/04/13 13:23:05;;;;;;;;;;;;;;;-143.27;100.00;61465.69;4230786;28;5123;-64
2022/04/13 13:25:08;;;;;;;;;;;;;;;-143.27;100.00;61465.69;4231400;28;5799;-62
2022/04/13 13:27:12;;;;;;;;;;;;;;;-143.27;100.00;61465.69;4231760;28;5762;-62
2022/04/13 13:29:14;;;;;;;;;;;;;;;-143.27;100.00;61465.69;4223344;28;5794;-62
2022/04/13 13:31:17;;;;;;;;;;;;;;;-143.27;100.00;61465.69;4232908;28;5631;-62
2022/04/13 13:33:20;;;;;;;;;;;;;;;-143.27;100.00;61465.69;4218481;28;5706;-62
2022/04/13 13:35:26;;;;;;;;;;;;;;;-143.27;100.00;61465.69;4221121;28;5605;-61
2022/04/13 13:37:40;;;;;;;;;;;;;;;-143.27;100.00;61465.69;4224107;28;5703;-62
2022/04/13 13:39:41;;;;;;;;;;;;;;;-143.27;100.00;61465.69;4233599;27;5072;-62
2022/04/13 13:42:09;;;;;;;;;;;;;;;-143.27;100.00;61465.69;4229201;28;5080;-64
2022/04/13 13:44:23;;;;;;;;;;;;;;;-143.27;100.00;61465.69;4226681;28;7727;-63
2022/04/13 13:46:25;;;;;;;;;;;;;;;-143.27;100.00;61465.69;4226306;28;5127;-63
2022/04/13 13:48:27;;;;;;;;;;;;;;;-143.27;100.00;61465.69;4223330;28;5714;-63
2022/04/13 13:50:31;;;;;;;;;;;;;;;-143.27;100.00;61465.69;4222935;28;5898;-62
2022/04/13 13:52:32;;;;;;;;;;;;;;;-143.27;100.00;61465.69;4227616;28;5733;-63
2022/04/13 13:54:35;;;;;;;;;;;;;;;-143.27;100.00;61465.69;4235239;27;5713;-62
2022/04/13 13:56:36;;;;;;;;;;;;;;;-143.27;100.00;61465.69;4230042;28;5741;-62
2022/04/13 13:58:38;;;;;;;;;;;;;;;-143.27;100.00;61465.69;4234648;28;5748;-62
2022/04/13 14:00:40;;;;;;;;;;;;;;;-143.27;100.00;61465.69;4227984;28;5865;-62
2022/04/13 14:02:42;;;;;;;;;;;;;;;-143.27;100.00;61465.69;4218598;28;5742;-62
2022/04/13 14:04:43;;;;;;;;;;;;;;;-143.27;100.00;61465.69;4222493;28;6244;-62
2022/04/13 14:06:45;;;;;;;;;;;;;;;-143.27;100.00;61465.69;4220103;28;5656;-63
2022/04/13 14:08:50;;;;;;;;;;;;;;;-143.27;100.00;61465.69;4230842;28;5729;-62
2022/04/13 14:10:52;;;;;;;;;;;;;;;-143.27;100.00;61465.69;4225927;27;5649;-63
2022/04/13 14:12:55;;;;;;;;;;;;;;;-143.27;100.00;61465.69;4225468;28;5821;-63
2022/04/13 14:14:57;;;;;;;;;;;;;;;-143.27;100.00;61465.69;4231744;27;5673;-62
2022/04/13 14:16:58;;;;;;;;;;;;;;;-143.27;100.00;61465.69;4226010;28;5095;-63
2022/04/13 14:19:00;;;;;;;;;;;;;;;-143.27;100.00;61465.69;4214837;28;5720;-62
2022/04/13 14:21:02;;;;;;;;;;;;;;;-143.27;100.00;61465.69;4231908;27;5649;-63
2022/04/13 14:23:03;;;;;;;;;;;;;;;-143.27;100.00;61465.69;4230026;28;5808;-62
2022/04/13 14:25:07;;;;;;;;;;;;;;;-143.27;100.00;61465.69;4218738;28;5802;-62
2022/04/13 14:27:09;;;;;;;;;;;;;;;-143.27;100.00;61465.69;4218227;28;5616;-70
2022/04/13 14:29:11;;;;;;;;;;;;;;;-143.27;100.00;61465.69;4225478;28;5753;-70
2022/04/13 14:31:13;;;;;;;;;;;;;;;-143.27;100.00;61465.69;4227509;27;5654;-70
2022/04/13 14:33:14;;;;;;;;;;;;;;;-143.27;100.00;61465.69;4223170;28;5828;-69
2022/04/13 14:35:17;;;;;;;;;;;;;;;-143.27;100.00;61465.69;4233252;27;5804;-70
2022/04/13 14:37:19;;;;;;;;;;;;;;;-143.27;100.00;61465.69;4225929;28;5670;-72
2022/04/13 14:39:23;;;;;;;;;;;;;;;-143.27;100.00;61465.69;4229988;27;5792;-70
2022/04/13 14:41:24;;;;;;;;;;;;;;;-143.27;100.00;61465.69;4229169;28;5713;-71
2022/04/13 14:43:26;;;;;;;;;;;;;;;-143.27;100.00;61465.69;4223233;28;5621;-70
2022/04/13 14:45:28;;;;;;;;;;;;;;;-143.27;100.00;61465.69;4225455;28;5749;-71
2022/04/13 14:47:29;;;;;;;;;;;;;;;-143.27;100.00;61465.69;4222842;28;5773;-70
2022/04/13 14:49:31;;;;;;;;;;;;;;;-143.27;100.00;61465.69;4228513;28;5683;-71
2022/04/13 14:51:33;;;;;;;;;;;;;;;-143.27;100.00;61465.69;4231088;28;5662;-70
2022/04/13 14:53:35;;;;;;;;;;;;;;;-143.27;100.00;61465.69;4233169;28;5835;-68
2022/04/13 14:55:36;;;;;;;;;;;;;;;-143.27;100.00;61465.69;4228821;27;5638;-69
2022/04/13 14:57:39;;;;;;;;;;;;;;;-143.27;100.00;61465.69;4218386;28;5719;-69
2022/04/13 14:59:41;;;;;;;;;;;;;;;-143.27;100.00;61465.69;4240266;27;5670;-69